sensor_id;sensor_type;location;lat;lon;timestamp;P1;durP1;ratioP1;P2;durP2;ratioP2
46651;SDS011;32377;52.182;5.398;2023-06-14T00:01:51;8.45;;;3.75;;
46651;SDS011;32377;52.182;5.398;2023-06-14T00:04:17;11.85;;;3.42;;
46651;SDS011;32377;52.182;5.398;2023-06-14T00:06:43;15.25;;;3.80;;
46651;SDS011;32377;52.182;5.398;2023-06-14T00:09:13;6.95;;;3.05;;
46651;SDS011;32377;52.182;5.398;2023-06-14T00:11:40;10.52;;;3.60;;
46651;SDS011;32377;52.182;5.398;2023-06-14T00:14:06;8.05;;;3.40;;
46651;SDS011;32377;52.182;5.398;2023-06-14T00:16:32;11.15;;;3.30;;
46651;SDS011;32377;52.182;5.398;2023-06-14T00:19:00;8.95;;;3.80;;
46651;SDS011;32377;52.182;5.398;2023-06-14T00:21:28;13.40;;;3.40;;
46651;SDS011;32377;52.182;5.398;2023-06-14T00:23:54;7.30;;;3.50;;
46651;SDS011;32377;52.182;5.398;2023-06-14T00:26:20;9.52;;;3.40;;
46651;SDS011;32377;52.182;5.398;2023-06-14T00:28:46;9.55;;;3.63;;
46651;SDS011;32377;52.182;5.398;2023-06-14T00:31:12;10.35;;;3.10;;
46651;SDS011;32377;52.182;5.398;2023-06-14T00:33:37;9.13;;;3.55;;
46651;SDS011;32377;52.182;5.398;2023-06-14T00:36:03;6.40;;;2.88;;
46651;SDS011;32377;52.182;5.398;2023-06-14T00:38:29;9.77;;;3.92;;
46651;SDS011;32377;52.182;5.398;2023-06-14T00:40:54;9.65;;;3.35;;
46651;SDS011;32377;52.182;5.398;2023-06-14T00:43:20;15.73;;;3.67;;
46651;SDS011;32377;52.182;5.398;2023-06-14T00:45:45;8.20;;;3.15;;
46651;SDS011;32377;52.182;5.398;2023-06-14T00:48:11;9.38;;;3.33;;
46651;SDS011;32377;52.182;5.398;2023-06-14T00:50:38;12.52;;;3.30;;
46651;SDS011;32377;52.182;5.398;2023-06-14T00:53:05;9.98;;;3.42;;
46651;SDS011;32377;52.182;5.398;2023-06-14T00:55:31;11.27;;;3.35;;
46651;SDS011;32377;52.182;5.398;2023-06-14T00:57:58;7.43;;;3.38;;
46651;SDS011;32377;52.182;5.398;2023-06-14T01:00:24;8.73;;;3.40;;
46651;SDS011;32377;52.182;5.398;2023-06-14T01:02:49;12.13;;;3.20;;
46651;SDS011;32377;52.182;5.398;2023-06-14T01:05:15;17.70;;;3.30;;
46651;SDS011;32377;52.182;5.398;2023-06-14T01:07:45;9.63;;;3.72;;
46651;SDS011;32377;52.182;5.398;2023-06-14T01:13:29;8.80;;;3.03;;
46651;SDS011;32377;52.182;5.398;2023-06-14T01:15:59;11.73;;;3.25;;
46651;SDS011;32377;52.182;5.398;2023-06-14T01:18:24;8.32;;;2.97;;
46651;SDS011;32377;52.182;5.398;2023-06-14T01:20:52;12.90;;;3.50;;
46651;SDS011;32377;52.182;5.398;2023-06-14T01:23:21;8.48;;;3.42;;
46651;SDS011;32377;52.182;5.398;2023-06-14T01:25:48;5.05;;;3.22;;
46651;SDS011;32377;52.182;5.398;2023-06-14T01:28:17;13.23;;;3.03;;
46651;SDS011;32377;52.182;5.398;2023-06-14T01:30:47;8.30;;;3.45;;
46651;SDS011;32377;52.182;5.398;2023-06-14T01:33:23;11.48;;;3.55;;
46651;SDS011;32377;52.182;5.398;2023-06-14T01:35:51;6.47;;;3.25;;
46651;SDS011;32377;52.182;5.398;2023-06-14T01:38:19;9.70;;;3.65;;
46651;SDS011;32377;52.182;5.398;2023-06-14T01:40:55;8.73;;;3.22;;
46651;SDS011;32377;52.182;5.398;2023-06-14T01:43:23;8.73;;;3.13;;
46651;SDS011;32377;52.182;5.398;2023-06-14T01:45:50;12.43;;;3.40;;
46651;SDS011;32377;52.182;5.398;2023-06-14T01:48:18;8.13;;;3.88;;
46651;SDS011;32377;52.182;5.398;2023-06-14T01:50:45;9.38;;;3.22;;
46651;SDS011;32377;52.182;5.398;2023-06-14T01:53:10;14.30;;;3.22;;
46651;SDS011;32377;52.182;5.398;2023-06-14T01:55:36;9.73;;;3.40;;
46651;SDS011;32377;52.182;5.398;2023-06-14T01:58:08;6.57;;;3.13;;
46651;SDS011;32377;52.182;5.398;2023-06-14T02:00:34;9.30;;;3.10;;
46651;SDS011;32377;52.182;5.398;2023-06-14T02:03:00;9.88;;;3.58;;
46651;SDS011;32377;52.182;5.398;2023-06-14T02:05:27;11.73;;;3.45;;
46651;SDS011;32377;52.182;5.398;2023-06-14T02:07:52;7.72;;;3.40;;
46651;SDS011;32377;52.182;5.398;2023-06-14T02:10:21;9.35;;;3.17;;
46651;SDS011;32377;52.182;5.398;2023-06-14T02:12:47;8.43;;;3.40;;
46651;SDS011;32377;52.182;5.398;2023-06-14T02:15:13;7.70;;;3.17;;
46651;SDS011;32377;52.182;5.398;2023-06-14T02:17:42;12.10;;;3.35;;
46651;SDS011;32377;52.182;5.398;2023-06-14T02:20:08;9.50;;;3.50;;
46651;SDS011;32377;52.182;5.398;2023-06-14T02:22:34;9.98;;;3.33;;
46651;SDS011;32377;52.182;5.398;2023-06-14T02:25:00;15.35;;;3.17;;
46651;SDS011;32377;52.182;5.398;2023-06-14T02:27:25;13.90;;;3.30;;
46651;SDS011;32377;52.182;5.398;2023-06-14T02:29:51;9.85;;;3.33;;
46651;SDS011;32377;52.182;5.398;2023-06-14T02:32:17;6.00;;;3.25;;
46651;SDS011;32377;52.182;5.398;2023-06-14T02:34:42;10.32;;;3.25;;
46651;SDS011;32377;52.182;5.398;2023-06-14T02:37:08;7.53;;;3.22;;
46651;SDS011;32377;52.182;5.398;2023-06-14T02:39:34;8.38;;;3.40;;
46651;SDS011;32377;52.182;5.398;2023-06-14T02:42:00;12.30;;;3.63;;
46651;SDS011;32377;52.182;5.398;2023-06-14T02:44:27;10.55;;;3.53;;
46651;SDS011;32377;52.182;5.398;2023-06-14T02:46:53;15.32;;;3.35;;
46651;SDS011;32377;52.182;5.398;2023-06-14T02:49:20;9.35;;;3.22;;
46651;SDS011;32377;52.182;5.398;2023-06-14T02:51:46;7.88;;;3.25;;
46651;SDS011;32377;52.182;5.398;2023-06-14T02:54:12;8.73;;;3.00;;
46651;SDS011;32377;52.182;5.398;2023-06-14T02:56:38;9.68;;;3.33;;
46651;SDS011;32377;52.182;5.398;2023-06-14T02:59:04;6.88;;;3.45;;
46651;SDS011;32377;52.182;5.398;2023-06-14T03:01:29;12.45;;;3.80;;
46651;SDS011;32377;52.182;5.398;2023-06-14T03:03:58;7.45;;;3.78;;
46651;SDS011;32377;52.182;5.398;2023-06-14T03:06:24;6.00;;;3.13;;
46651;SDS011;32377;52.182;5.398;2023-06-14T03:08:50;9.15;;;3.10;;
46651;SDS011;32377;52.182;5.398;2023-06-14T03:11:16;8.68;;;3.17;;
46651;SDS011;32377;52.182;5.398;2023-06-14T03:13:45;12.75;;;3.75;;
46651;SDS011;32377;52.182;5.398;2023-06-14T03:16:11;9.25;;;3.20;;
46651;SDS011;32377;52.182;5.398;2023-06-14T03:18:37;7.05;;;2.88;;
46651;SDS011;32377;52.182;5.398;2023-06-14T03:21:03;7.65;;;3.17;;
46651;SDS011;32377;52.182;5.398;2023-06-14T03:23:28;9.02;;;3.22;;
46651;SDS011;32377;52.182;5.398;2023-06-14T03:25:54;15.60;;;3.28;;
46651;SDS011;32377;52.182;5.398;2023-06-14T03:28:21;6.45;;;3.13;;
46651;SDS011;32377;52.182;5.398;2023-06-14T03:30:46;7.57;;;3.45;;
46651;SDS011;32377;52.182;5.398;2023-06-14T03:33:12;15.23;;;3.80;;
46651;SDS011;32377;52.182;5.398;2023-06-14T03:35:37;7.88;;;3.35;;
46651;SDS011;32377;52.182;5.398;2023-06-14T03:38:03;8.43;;;3.45;;
46651;SDS011;32377;52.182;5.398;2023-06-14T03:40:29;8.27;;;3.00;;
46651;SDS011;32377;52.182;5.398;2023-06-14T03:42:54;8.80;;;3.65;;
46651;SDS011;32377;52.182;5.398;2023-06-14T03:45:20;8.68;;;3.45;;
46651;SDS011;32377;52.182;5.398;2023-06-14T03:47:46;14.77;;;3.50;;
46651;SDS011;32377;52.182;5.398;2023-06-14T03:50:12;8.85;;;3.53;;
46651;SDS011;32377;52.182;5.398;2023-06-14T03:52:38;10.90;;;3.10;;
46651;SDS011;32377;52.182;5.398;2023-06-14T03:55:04;13.35;;;3.30;;
46651;SDS011;32377;52.182;5.398;2023-06-14T03:58:35;7.38;;;3.10;;
46651;SDS011;32377;52.182;5.398;2023-06-14T04:01:01;14.75;;;3.67;;
46651;SDS011;32377;52.182;5.398;2023-06-14T04:03:27;11.20;;;3.33;;
46651;SDS011;32377;52.182;5.398;2023-06-14T04:05:54;7.80;;;3.50;;
46651;SDS011;32377;52.182;5.398;2023-06-14T04:08:21;15.05;;;4.25;;
46651;SDS011;32377;52.182;5.398;2023-06-14T04:10:47;10.07;;;3.55;;
46651;SDS011;32377;52.182;5.398;2023-06-14T04:13:13;11.23;;;3.30;;
46651;SDS011;32377;52.182;5.398;2023-06-14T04:15:39;13.10;;;4.03;;
46651;SDS011;32377;52.182;5.398;2023-06-14T04:18:07;7.97;;;2.90;;
46651;SDS011;32377;52.182;5.398;2023-06-14T04:20:33;6.35;;;3.63;;
46651;SDS011;32377;52.182;5.398;2023-06-14T04:23:10;9.13;;;3.30;;
46651;SDS011;32377;52.182;5.398;2023-06-14T04:25:37;11.25;;;3.33;;
46651;SDS011;32377;52.182;5.398;2023-06-14T04:28:03;5.90;;;3.25;;
46651;SDS011;32377;52.182;5.398;2023-06-14T04:30:29;7.55;;;3.35;;
46651;SDS011;32377;52.182;5.398;2023-06-14T04:32:56;11.50;;;3.60;;
46651;SDS011;32377;52.182;5.398;2023-06-14T04:35:24;9.38;;;3.58;;
46651;SDS011;32377;52.182;5.398;2023-06-14T04:37:50;10.57;;;3.58;;
46651;SDS011;32377;52.182;5.398;2023-06-14T04:40:16;10.35;;;3.80;;
46651;SDS011;32377;52.182;5.398;2023-06-14T04:42:42;12.32;;;3.95;;
46651;SDS011;32377;52.182;5.398;2023-06-14T04:45:10;6.25;;;3.20;;
46651;SDS011;32377;52.182;5.398;2023-06-14T04:47:36;8.60;;;3.53;;
46651;SDS011;32377;52.182;5.398;2023-06-14T04:50:02;6.72;;;3.50;;
46651;SDS011;32377;52.182;5.398;2023-06-14T04:52:28;9.77;;;3.55;;
46651;SDS011;32377;52.182;5.398;2023-06-14T04:54:55;8.32;;;3.10;;
46651;SDS011;32377;52.182;5.398;2023-06-14T04:57:20;7.60;;;3.22;;
46651;SDS011;32377;52.182;5.398;2023-06-14T04:59:47;9.88;;;3.45;;
46651;SDS011;32377;52.182;5.398;2023-06-14T05:02:13;11.18;;;3.60;;
46651;SDS011;32377;52.182;5.398;2023-06-14T05:04:39;10.52;;;3.53;;
46651;SDS011;32377;52.182;5.398;2023-06-14T05:07:08;11.18;;;4.07;;
46651;SDS011;32377;52.182;5.398;2023-06-14T05:09:34;10.10;;;3.55;;
46651;SDS011;32377;52.182;5.398;2023-06-14T05:12:00;7.07;;;3.40;;
46651;SDS011;32377;52.182;5.398;2023-06-14T05:14:26;8.20;;;3.78;;
46651;SDS011;32377;52.182;5.398;2023-06-14T05:16:52;10.45;;;3.95;;
46651;SDS011;32377;52.182;5.398;2023-06-14T05:19:18;8.20;;;4.13;;
46651;SDS011;32377;52.182;5.398;2023-06-14T05:21:45;9.73;;;3.70;;
46651;SDS011;32377;52.182;5.398;2023-06-14T05:24:12;8.77;;;3.42;;
46651;SDS011;32377;52.182;5.398;2023-06-14T05:26:38;9.68;;;3.40;;
46651;SDS011;32377;52.182;5.398;2023-06-14T05:29:04;10.20;;;3.70;;
46651;SDS011;32377;52.182;5.398;2023-06-14T05:31:30;10.95;;;3.22;;
46651;SDS011;32377;52.182;5.398;2023-06-14T05:33:56;13.82;;;3.50;;
46651;SDS011;32377;52.182;5.398;2023-06-14T05:36:21;9.93;;;4.05;;
46651;SDS011;32377;52.182;5.398;2023-06-14T05:38:47;8.52;;;3.70;;
46651;SDS011;32377;52.182;5.398;2023-06-14T05:41:13;5.20;;;3.35;;
46651;SDS011;32377;52.182;5.398;2023-06-14T05:43:39;8.20;;;3.28;;
46651;SDS011;32377;52.182;5.398;2023-06-14T05:46:04;11.18;;;3.45;;
46651;SDS011;32377;52.182;5.398;2023-06-14T05:48:30;15.10;;;3.95;;
46651;SDS011;32377;52.182;5.398;2023-06-14T05:50:56;4.57;;;2.95;;
46651;SDS011;32377;52.182;5.398;2023-06-14T05:53:21;7.93;;;3.15;;
46651;SDS011;32377;52.182;5.398;2023-06-14T05:55:47;6.82;;;2.90;;
46651;SDS011;32377;52.182;5.398;2023-06-14T05:58:13;7.80;;;3.63;;
46651;SDS011;32377;52.182;5.398;2023-06-14T06:00:38;10.65;;;3.60;;
46651;SDS011;32377;52.182;5.398;2023-06-14T06:03:04;6.50;;;3.28;;
46651;SDS011;32377;52.182;5.398;2023-06-14T06:05:33;8.52;;;3.45;;
46651;SDS011;32377;52.182;5.398;2023-06-14T06:07:58;6.85;;;3.28;;
46651;SDS011;32377;52.182;5.398;2023-06-14T06:10:25;7.25;;;3.00;;
46651;SDS011;32377;52.182;5.398;2023-06-14T06:12:51;7.82;;;3.33;;
46651;SDS011;32377;52.182;5.398;2023-06-14T06:15:17;8.25;;;3.78;;
46651;SDS011;32377;52.182;5.398;2023-06-14T06:17:43;7.75;;;3.40;;
46651;SDS011;32377;52.182;5.398;2023-06-14T06:20:09;8.25;;;3.15;;
46651;SDS011;32377;52.182;5.398;2023-06-14T06:22:36;9.77;;;3.03;;
46651;SDS011;32377;52.182;5.398;2023-06-14T06:25:02;14.73;;;3.17;;
46651;SDS011;32377;52.182;5.398;2023-06-14T06:27:28;7.35;;;3.28;;
46651;SDS011;32377;52.182;5.398;2023-06-14T06:29:54;8.38;;;3.50;;
46651;SDS011;32377;52.182;5.398;2023-06-14T06:32:20;12.80;;;4.38;;
46651;SDS011;32377;52.182;5.398;2023-06-14T06:34:45;8.30;;;3.83;;
46651;SDS011;32377;52.182;5.398;2023-06-14T06:37:11;8.90;;;3.17;;
46651;SDS011;32377;52.182;5.398;2023-06-14T06:39:38;12.82;;;3.70;;
46651;SDS011;32377;52.182;5.398;2023-06-14T06:42:03;9.88;;;3.10;;
46651;SDS011;32377;52.182;5.398;2023-06-14T06:44:30;7.85;;;3.40;;
46651;SDS011;32377;52.182;5.398;2023-06-14T06:46:56;8.13;;;3.33;;
46651;SDS011;32377;52.182;5.398;2023-06-14T06:49:22;9.32;;;3.42;;
46651;SDS011;32377;52.182;5.398;2023-06-14T06:52:01;8.30;;;3.33;;
46651;SDS011;32377;52.182;5.398;2023-06-14T06:54:28;9.25;;;3.30;;
46651;SDS011;32377;52.182;5.398;2023-06-14T06:56:54;4.75;;;3.25;;
46651;SDS011;32377;52.182;5.398;2023-06-14T06:59:19;13.73;;;3.70;;
46651;SDS011;32377;52.182;5.398;2023-06-14T07:01:45;9.75;;;3.50;;
46651;SDS011;32377;52.182;5.398;2023-06-14T07:04:11;8.02;;;3.40;;
46651;SDS011;32377;52.182;5.398;2023-06-14T07:06:37;7.40;;;3.10;;
46651;SDS011;32377;52.182;5.398;2023-06-14T07:09:03;6.20;;;3.63;;
46651;SDS011;32377;52.182;5.398;2023-06-14T07:11:31;8.52;;;3.55;;
46651;SDS011;32377;52.182;5.398;2023-06-14T07:13:57;7.82;;;3.30;;
46651;SDS011;32377;52.182;5.398;2023-06-14T07:16:23;6.45;;;3.40;;
46651;SDS011;32377;52.182;5.398;2023-06-14T07:18:48;11.13;;;3.65;;
46651;SDS011;32377;52.182;5.398;2023-06-14T07:21:14;5.57;;;3.55;;
46651;SDS011;32377;52.182;5.398;2023-06-14T07:23:39;6.38;;;3.13;;
46651;SDS011;32377;52.182;5.398;2023-06-14T07:26:05;12.23;;;3.40;;
46651;SDS011;32377;52.182;5.398;2023-06-14T07:28:31;6.40;;;3.30;;
46651;SDS011;32377;52.182;5.398;2023-06-14T07:30:57;10.88;;;3.10;;
46651;SDS011;32377;52.182;5.398;2023-06-14T07:33:22;7.35;;;2.83;;
46651;SDS011;32377;52.182;5.398;2023-06-14T07:35:48;7.60;;;3.53;;
46651;SDS011;32377;52.182;5.398;2023-06-14T07:38:14;4.93;;;3.10;;
46651;SDS011;32377;52.182;5.398;2023-06-14T07:40:40;5.68;;;2.40;;
46651;SDS011;32377;52.182;5.398;2023-06-14T07:43:05;8.40;;;2.75;;
46651;SDS011;32377;52.182;5.398;2023-06-14T07:45:31;6.07;;;2.55;;
46651;SDS011;32377;52.182;5.398;2023-06-14T07:47:56;5.35;;;2.67;;
46651;SDS011;32377;52.182;5.398;2023-06-14T07:50:22;6.63;;;2.38;;
46651;SDS011;32377;52.182;5.398;2023-06-14T07:52:48;17.58;;;3.22;;
46651;SDS011;32377;52.182;5.398;2023-06-14T07:55:14;6.53;;;2.47;;
46651;SDS011;32377;52.182;5.398;2023-06-14T07:57:40;7.20;;;2.30;;
46651;SDS011;32377;52.182;5.398;2023-06-14T08:00:06;6.22;;;2.67;;
46651;SDS011;32377;52.182;5.398;2023-06-14T08:02:32;8.40;;;2.10;;
46651;SDS011;32377;52.182;5.398;2023-06-14T08:04:57;4.65;;;2.60;;
46651;SDS011;32377;52.182;5.398;2023-06-14T08:07:23;9.77;;;2.58;;
46651;SDS011;32377;52.182;5.398;2023-06-14T08:09:49;4.63;;;1.98;;
46651;SDS011;32377;52.182;5.398;2023-06-14T08:12:15;5.40;;;2.67;;
46651;SDS011;32377;52.182;5.398;2023-06-14T08:14:41;3.20;;;2.25;;
46651;SDS011;32377;52.182;5.398;2023-06-14T08:17:07;7.45;;;2.55;;
46651;SDS011;32377;52.182;5.398;2023-06-14T08:19:33;4.72;;;2.00;;
46651;SDS011;32377;52.182;5.398;2023-06-14T08:21:59;4.55;;;2.35;;
46651;SDS011;32377;52.182;5.398;2023-06-14T08:24:25;7.43;;;1.90;;
46651;SDS011;32377;52.182;5.398;2023-06-14T08:26:52;4.93;;;1.88;;
46651;SDS011;32377;52.182;5.398;2023-06-14T08:29:18;5.50;;;1.90;;
46651;SDS011;32377;52.182;5.398;2023-06-14T08:31:44;4.38;;;1.60;;
46651;SDS011;32377;52.182;5.398;2023-06-14T08:34:10;5.35;;;2.10;;
46651;SDS011;32377;52.182;5.398;2023-06-14T08:36:36;4.93;;;2.03;;
46651;SDS011;32377;52.182;5.398;2023-06-14T08:39:01;8.50;;;2.28;;
46651;SDS011;32377;52.182;5.398;2023-06-14T08:41:27;2.72;;;1.80;;
46651;SDS011;32377;52.182;5.398;2023-06-14T08:43:54;4.85;;;2.00;;
46651;SDS011;32377;52.182;5.398;2023-06-14T08:46:21;7.20;;;2.35;;
46651;SDS011;32377;52.182;5.398;2023-06-14T08:48:50;5.93;;;1.77;;
46651;SDS011;32377;52.182;5.398;2023-06-14T08:51:20;6.30;;;2.08;;
46651;SDS011;32377;52.182;5.398;2023-06-14T08:53:49;5.43;;;2.05;;
46651;SDS011;32377;52.182;5.398;2023-06-14T08:56:26;6.63;;;2.53;;
46651;SDS011;32377;52.182;5.398;2023-06-14T08:58:54;6.00;;;2.00;;
46651;SDS011;32377;52.182;5.398;2023-06-14T09:01:20;2.53;;;1.85;;
46651;SDS011;32377;52.182;5.398;2023-06-14T09:03:47;2.97;;;1.80;;
46651;SDS011;32377;52.182;5.398;2023-06-14T09:06:14;5.22;;;2.03;;
46651;SDS011;32377;52.182;5.398;2023-06-14T09:08:43;3.17;;;1.83;;
46651;SDS011;32377;52.182;5.398;2023-06-14T09:11:13;8.30;;;2.00;;
46651;SDS011;32377;52.182;5.398;2023-06-14T09:13:40;5.10;;;2.10;;
46651;SDS011;32377;52.182;5.398;2023-06-14T09:16:06;8.63;;;1.88;;
46651;SDS011;32377;52.182;5.398;2023-06-14T09:18:42;3.85;;;1.70;;
46651;SDS011;32377;52.182;5.398;2023-06-14T09:21:09;3.38;;;1.73;;
46651;SDS011;32377;52.182;5.398;2023-06-14T09:23:37;6.68;;;1.85;;
46651;SDS011;32377;52.182;5.398;2023-06-14T09:26:36;4.22;;;2.10;;
46651;SDS011;32377;52.182;5.398;2023-06-14T09:28:55;3.78;;;1.80;;
46651;SDS011;32377;52.182;5.398;2023-06-14T09:31:21;6.60;;;1.70;;
46651;SDS011;32377;52.182;5.398;2023-06-14T09:33:49;5.18;;;1.60;;
46651;SDS011;32377;52.182;5.398;2023-06-14T09:36:25;2.35;;;1.60;;
46651;SDS011;32377;52.182;5.398;2023-06-14T09:38:51;5.88;;;2.15;;
46651;SDS011;32377;52.182;5.398;2023-06-14T09:41:30;2.33;;;1.80;;
46651;SDS011;32377;52.182;5.398;2023-06-14T09:44:00;4.20;;;1.60;;
46651;SDS011;32377;52.182;5.398;2023-06-14T09:46:28;5.35;;;1.92;;
46651;SDS011;32377;52.182;5.398;2023-06-14T09:48:57;7.82;;;1.80;;
46651;SDS011;32377;52.182;5.398;2023-06-14T09:51:23;5.15;;;2.13;;
46651;SDS011;32377;52.182;5.398;2023-06-14T09:53:50;1.90;;;1.60;;
46651;SDS011;32377;52.182;5.398;2023-06-14T09:58:36;4.22;;;1.70;;
46651;SDS011;32377;52.182;5.398;2023-06-14T10:01:04;4.75;;;2.25;;
46651;SDS011;32377;52.182;5.398;2023-06-14T10:03:32;9.25;;;1.92;;
46651;SDS011;32377;52.182;5.398;2023-06-14T10:05:58;3.25;;;1.90;;
46651;SDS011;32377;52.182;5.398;2023-06-14T10:08:28;4.95;;;1.70;;
46651;SDS011;32377;52.182;5.398;2023-06-14T10:10:58;5.40;;;1.80;;
46651;SDS011;32377;52.182;5.398;2023-06-14T10:13:23;3.80;;;1.55;;
46651;SDS011;32377;52.182;5.398;2023-06-14T10:18:42;2.67;;;1.63;;
46651;SDS011;32377;52.182;5.398;2023-06-14T10:24:10;6.22;;;1.60;;
46651;SDS011;32377;52.182;5.398;2023-06-14T10:26:50;3.65;;;1.90;;
46651;SDS011;32377;52.182;5.398;2023-06-14T10:29:17;7.07;;;2.20;;
46651;SDS011;32377;52.182;5.398;2023-06-14T10:31:44;4.82;;;1.45;;
46651;SDS011;32377;52.182;5.398;2023-06-14T10:34:31;3.60;;;1.80;;
46651;SDS011;32377;52.182;5.398;2023-06-14T10:37:12;3.60;;;1.50;;
46651;SDS011;32377;52.182;5.398;2023-06-14T10:39:40;3.80;;;1.70;;
46651;SDS011;32377;52.182;5.398;2023-06-14T10:42:07;4.18;;;1.95;;
46651;SDS011;32377;52.182;5.398;2023-06-14T10:49:52;4.45;;;1.88;;
46651;SDS011;32377;52.182;5.398;2023-06-14T10:52:26;3.35;;;1.70;;
46651;SDS011;32377;52.182;5.398;2023-06-14T10:55:00;4.88;;;1.83;;
46651;SDS011;32377;52.182;5.398;2023-06-14T10:57:40;3.92;;;1.60;;
46651;SDS011;32377;52.182;5.398;2023-06-14T11:00:08;2.88;;;1.80;;
46651;SDS011;32377;52.182;5.398;2023-06-14T11:08:39;5.10;;;1.63;;
46651;SDS011;32377;52.182;5.398;2023-06-14T11:11:21;5.43;;;1.63;;
46651;SDS011;32377;52.182;5.398;2023-06-14T11:13:50;7.38;;;2.08;;
46651;SDS011;32377;52.182;5.398;2023-06-14T11:16:18;2.70;;;1.58;;
46651;SDS011;32377;52.182;5.398;2023-06-14T11:18:44;2.45;;;1.60;;
46651;SDS011;32377;52.182;5.398;2023-06-14T11:21:10;7.28;;;2.10;;
46651;SDS011;32377;52.182;5.398;2023-06-14T11:23:36;6.22;;;1.77;;
46651;SDS011;32377;52.182;5.398;2023-06-14T11:26:02;4.07;;;1.73;;
46651;SDS011;32377;52.182;5.398;2023-06-14T11:28:39;2.85;;;1.70;;
46651;SDS011;32377;52.182;5.398;2023-06-14T11:31:05;2.75;;;1.50;;
46651;SDS011;32377;52.182;5.398;2023-06-14T11:33:31;1.98;;;1.73;;
46651;SDS011;32377;52.182;5.398;2023-06-14T11:35:57;5.82;;;1.88;;
46651;SDS011;32377;52.182;5.398;2023-06-14T11:38:23;2.72;;;1.85;;
46651;SDS011;32377;52.182;5.398;2023-06-14T11:40:49;6.70;;;1.90;;
46651;SDS011;32377;52.182;5.398;2023-06-14T11:43:15;5.68;;;2.10;;
46651;SDS011;32377;52.182;5.398;2023-06-14T11:45:41;4.43;;;1.60;;
46651;SDS011;32377;52.182;5.398;2023-06-14T11:48:07;2.05;;;1.63;;
46651;SDS011;32377;52.182;5.398;2023-06-14T11:50:32;2.45;;;1.80;;
46651;SDS011;32377;52.182;5.398;2023-06-14T11:53:03;2.47;;;1.92;;
46651;SDS011;32377;52.182;5.398;2023-06-14T11:55:35;2.90;;;1.50;;
46651;SDS011;32377;52.182;5.398;2023-06-14T11:58:05;3.95;;;1.75;;
46651;SDS011;32377;52.182;5.398;2023-06-14T12:00:31;2.05;;;1.50;;
46651;SDS011;32377;52.182;5.398;2023-06-14T12:02:58;2.70;;;1.70;;
46651;SDS011;32377;52.182;5.398;2023-06-14T12:05:24;3.85;;;1.80;;
46651;SDS011;32377;52.182;5.398;2023-06-14T12:07:57;2.95;;;1.55;;
46651;SDS011;32377;52.182;5.398;2023-06-14T12:10:25;3.45;;;1.55;;
46651;SDS011;32377;52.182;5.398;2023-06-14T12:12:51;2.10;;;1.65;;
46651;SDS011;32377;52.182;5.398;2023-06-14T12:15:21;5.10;;;1.60;;
46651;SDS011;32377;52.182;5.398;2023-06-14T12:17:47;5.50;;;1.73;;
46651;SDS011;32377;52.182;5.398;2023-06-14T12:20:13;3.92;;;1.80;;
46651;SDS011;32377;52.182;5.398;2023-06-14T12:22:50;5.93;;;1.80;;
46651;SDS011;32377;52.182;5.398;2023-06-14T12:25:27;2.15;;;1.67;;
46651;SDS011;32377;52.182;5.398;2023-06-14T12:27:55;4.75;;;1.80;;
46651;SDS011;32377;52.182;5.398;2023-06-14T12:30:21;6.00;;;1.75;;
46651;SDS011;32377;52.182;5.398;2023-06-14T12:32:47;4.47;;;2.10;;
46651;SDS011;32377;52.182;5.398;2023-06-14T12:35:13;3.30;;;1.80;;
46651;SDS011;32377;52.182;5.398;2023-06-14T12:37:40;3.17;;;1.80;;
46651;SDS011;32377;52.182;5.398;2023-06-14T12:40:05;3.17;;;1.80;;
46651;SDS011;32377;52.182;5.398;2023-06-14T12:42:32;4.57;;;1.83;;
46651;SDS011;32377;52.182;5.398;2023-06-14T12:44:59;10.48;;;1.80;;
46651;SDS011;32377;52.182;5.398;2023-06-14T12:47:24;3.17;;;1.63;;
46651;SDS011;32377;52.182;5.398;2023-06-14T12:49:50;5.47;;;1.83;;
46651;SDS011;32377;52.182;5.398;2023-06-14T12:52:16;2.83;;;1.67;;
46651;SDS011;32377;52.182;5.398;2023-06-14T12:54:41;6.07;;;1.90;;
46651;SDS011;32377;52.182;5.398;2023-06-14T12:57:07;2.85;;;1.90;;
46651;SDS011;32377;52.182;5.398;2023-06-14T12:59:33;6.13;;;1.80;;
46651;SDS011;32377;52.182;5.398;2023-06-14T13:02:00;4.03;;;1.98;;
46651;SDS011;32377;52.182;5.398;2023-06-14T13:04:38;6.18;;;1.80;;
46651;SDS011;32377;52.182;5.398;2023-06-14T13:07:04;6.50;;;1.77;;
46651;SDS011;32377;52.182;5.398;2023-06-14T13:09:30;4.75;;;1.98;;
46651;SDS011;32377;52.182;5.398;2023-06-14T13:11:56;2.08;;;1.50;;
46651;SDS011;32377;52.182;5.398;2023-06-14T13:14:21;3.75;;;1.20;;
46651;SDS011;32377;52.182;5.398;2023-06-14T13:16:47;8.00;;;2.20;;
46651;SDS011;32377;52.182;5.398;2023-06-14T13:19:13;2.03;;;1.60;;
46651;SDS011;32377;52.182;5.398;2023-06-14T13:21:39;3.47;;;1.67;;
46651;SDS011;32377;52.182;5.398;2023-06-14T13:24:04;7.43;;;2.20;;
46651;SDS011;32377;52.182;5.398;2023-06-14T13:26:30;3.17;;;1.60;;
46651;SDS011;32377;52.182;5.398;2023-06-14T13:28:57;2.30;;;1.75;;
46651;SDS011;32377;52.182;5.398;2023-06-14T13:31:23;4.60;;;1.70;;
46651;SDS011;32377;52.182;5.398;2023-06-14T13:33:48;7.03;;;1.98;;
46651;SDS011;32377;52.182;5.398;2023-06-14T13:36:14;3.50;;;1.60;;
46651;SDS011;32377;52.182;5.398;2023-06-14T13:38:40;5.65;;;1.75;;
46651;SDS011;32377;52.182;5.398;2023-06-14T13:41:05;3.80;;;1.58;;
46651;SDS011;32377;52.182;5.398;2023-06-14T13:43:31;16.67;;;2.63;;
46651;SDS011;32377;52.182;5.398;2023-06-14T13:45:56;2.33;;;1.80;;
46651;SDS011;32377;52.182;5.398;2023-06-14T13:48:22;3.28;;;1.33;;
46651;SDS011;32377;52.182;5.398;2023-06-14T13:50:48;9.40;;;1.92;;
46651;SDS011;32377;52.182;5.398;2023-06-14T13:53:14;5.80;;;1.77;;
46651;SDS011;32377;52.182;5.398;2023-06-14T13:55:40;6.10;;;1.70;;
46651;SDS011;32377;52.182;5.398;2023-06-14T13:58:05;9.48;;;2.20;;
46651;SDS011;32377;52.182;5.398;2023-06-14T14:00:31;5.20;;;1.98;;
46651;SDS011;32377;52.182;5.398;2023-06-14T14:02:57;3.50;;;1.60;;
46651;SDS011;32377;52.182;5.398;2023-06-14T14:05:24;2.75;;;1.70;;
46651;SDS011;32377;52.182;5.398;2023-06-14T14:07:54;8.07;;;1.73;;
46651;SDS011;32377;52.182;5.398;2023-06-14T14:10:21;3.97;;;1.85;;
46651;SDS011;32377;52.182;5.398;2023-06-14T14:12:48;4.90;;;1.70;;
46651;SDS011;32377;52.182;5.398;2023-06-14T14:15:14;3.95;;;1.67;;
46651;SDS011;32377;52.182;5.398;2023-06-14T14:17:40;4.75;;;1.40;;
46651;SDS011;32377;52.182;5.398;2023-06-14T14:20:06;6.57;;;1.80;;
46651;SDS011;32377;52.182;5.398;2023-06-14T14:22:32;2.42;;;1.67;;
46651;SDS011;32377;52.182;5.398;2023-06-14T14:24:58;7.30;;;2.10;;
46651;SDS011;32377;52.182;5.398;2023-06-14T14:27:26;4.05;;;1.60;;
46651;SDS011;32377;52.182;5.398;2023-06-14T14:29:52;3.97;;;1.80;;
46651;SDS011;32377;52.182;5.398;2023-06-14T14:32:18;5.22;;;1.90;;
46651;SDS011;32377;52.182;5.398;2023-06-14T14:34:43;6.78;;;1.88;;
46651;SDS011;32377;52.182;5.398;2023-06-14T14:37:09;4.03;;;1.63;;
46651;SDS011;32377;52.182;5.398;2023-06-14T14:39:36;6.60;;;1.42;;
46651;SDS011;32377;52.182;5.398;2023-06-14T14:42:02;4.20;;;1.55;;
46651;SDS011;32377;52.182;5.398;2023-06-14T14:44:27;3.75;;;1.70;;
46651;SDS011;32377;52.182;5.398;2023-06-14T14:46:53;2.28;;;1.63;;
46651;SDS011;32377;52.182;5.398;2023-06-14T14:49:19;7.65;;;1.67;;
46651;SDS011;32377;52.182;5.398;2023-06-14T14:51:45;7.93;;;1.58;;
46651;SDS011;32377;52.182;5.398;2023-06-14T14:54:11;1.65;;;1.50;;
46651;SDS011;32377;52.182;5.398;2023-06-14T14:56:36;3.35;;;1.65;;
46651;SDS011;32377;52.182;5.398;2023-06-14T14:59:03;3.53;;;1.60;;
46651;SDS011;32377;52.182;5.398;2023-06-14T15:01:29;5.40;;;1.80;;
46651;SDS011;32377;52.182;5.398;2023-06-14T15:03:55;6.05;;;1.40;;
46651;SDS011;32377;52.182;5.398;2023-06-14T15:06:20;4.28;;;1.40;;
46651;SDS011;32377;52.182;5.398;2023-06-14T15:08:46;3.22;;;1.60;;